West Olive, MI (49460)

1:49 AM EST on February 25, 2017 (GMT -0500)
Sheldon Dunes | | Change Station
Active Advisory: Winter Weather Advisory Active Notice: Public Information Statement

Elev 646 ft 42.94 °N, 86.21 °W | Updated 40 seconds ago

Overcast
Overcast
30.9 °F
Feels Like 28 °F
N
3.1
Wind Variable Wind from North
Gusts 4.5 mph

Today
High -- | Low -- °F
--% Chance of Precip.
Yesterday
High -- | Low -- °F
Precip. -- in
Pressure 29.54 in
Visibility 5.0 miles
Clouds Overcast 600 ft
Windchill 28 °F
Dew Point 30 °F
Humidity 95%
Rainfall 0.38 in
Snow Depth Not available.
7:26 AM 6:29 PM
Waning Crescent, 2% visible
SPECI KBIV 250614Z AUTO 28012G18KT 5SM -SN BR OVC006 01/M01 A2954 RMK AO2 P0000 T00061011
Pressure 29.54 in
Visibility 5.0 miles
Clouds Overcast 600 ft
Windchill 28 °F
Dew Point 30 °F
Humidity 95%
Rainfall 0.38 in
Snow Depth Not available.
7:26 AM 6:29 PM
Waning Crescent, 2% visible
SPECI KBIV 250614Z AUTO 28012G18KT 5SM -SN BR OVC006 01/M01 A2954 RMK AO2 P0000 T00061011

Get Your Daily Forecast Email!

Thanks for signing up!

Be on the lookout for a verification email in your inbox.

You'll start receiving the daily forecast at 8 AM.

×

10-Day Weather Forecast

Almanac

Astronomy

Feb. 25, 2017 Rise Set
Actual Time
Civil Twilight
Nautical Twilight
Astronomical Twilight
Moon
Length of Visible Light
Length of Day
Tomorrow will be .
, % of the Moon is Illuminated

Today's Extremes

State Highs State Lows

Community

WunderPhotos

Upload Photos

1,962,540 photos uploaded!

WunderBlog® & News

Nearby

Air Quality

  Air Quality AQ Index Pollutant
Not available.

Snow Depth

Station Depth Elevation

Earthquake Activity

City Distance Mag. Time & Date
Minimum magnitude displayed is 2.5.

Coastal Water Temperatures

Place Temperature

Stations

Nearby Weather Stations

Station Location Temp. Windchill Dew Point Humidity Wind Precip. Elev Updated Type
                   

Watches & Warnings

Winter Weather Advisory
Issued: 9:15 PM EST Feb. 24, 2017 – National Weather Service

... Winter Weather Advisory remains in effect from 3 am to 8 PM
EST Saturday...

Hazardous weather...

* occasional snow showers.

* Winds gusting to 35 mph producing near whiteout conditions,
   especially Saturday morning.

* 1 to 3 inches of snow accumulation by Saturday evening.

Impacts...

* roads becoming snow covered and slippery.

* Visibilities occasionally reduced to less than a half mile.

Precautionary/preparedness actions...

* the Michigan Department of Transportation reminds motorists
   to adjust speeds based on the conditions... and to take it
   slow in ice and snow.